Portada
METAR-TAF:

METAR-TAF

Aeropuertos :

Aeropuerto de Cairns

Cairns, Australia

latitud: 16-53S, longitud: 145-45E, altitud: 3 m

Observación

El informe se hizo hace 10 horas y 50 minutos, a las 05:00 UTC
Viento 17 kt del sureste
Temperatura 24°C
Humedad 38%
Presión 1015 hPa
Visibilidad 10 km o más
Nubes dispersas a una altura de 5500 ft

METAR: YBCS 210500Z 13017KT 9999 SCT055 24/09 Q1015 NOSIG

Hora: 01:50 (15:50 UTC)

Pronóstico

El informe se hizo hace 10 horas y 58 minutos, a las 04:52 UTC
Pronóstico válido del 21 a las 06 UTC al 22 a las 06 UTC
Viento 14 kt del este-sureste
Visibilidad 10 km o más
Escasas nubes a una altura de 3000 ft
Nubes dispersas a una altura de 5000 ft
A partir de las 21 a las 0800 UTC
Viento 8 kt del sur-sureste
Visibilidad 10 km o más
Nubes dispersas a una altura de 2500 ft

TAF: YBCS 210452Z 2106/2206 12014KT 9999 FEW030 SCT050 FM210800 15008KT 9999 SCT025

Observaciones y pronósticos meteorológicos de más de 4000 aeropuertos (mensajes METAR y TAF).

Los puntos amarillos y rojos representan las estaciones disponibles.

Ponga el ratón en el punto deseado para ver el nombre de la estación.

Haga clic para ver las observaciones y los pronósticos meteorológicos.

Para cambiar el mapa : haga clic en los botones verdes con una cruz de color negro para hacer un zoom, en el botón verde con un guión para alejar o en las flechas verdes para mapas adyacentes.


METAR-TAF: